createdAt,value
2023-03-21T00:00:20.144Z,82.10
2023-03-21T00:01:04.774Z,82.18
2023-03-21T00:02:24.303Z,82.56
2023-03-21T00:03:02.156Z,82.17
2023-03-21T00:05:38.108Z,82.03
2023-03-21T00:06:17.346Z,82.25
2023-03-21T00:06:55.467Z,82.18
2023-03-21T00:07:43.963Z,82.38
2023-03-21T00:08:26.048Z,81.98
2023-03-21T00:09:05.291Z,81.98
2023-03-21T00:09:47.336Z,82.05
2023-03-21T00:11:05.774Z,82.15
2023-03-21T00:12:11.516Z,81.96
2023-03-21T00:13:28.777Z,81.99
2023-03-21T00:14:33.017Z,81.99
2023-03-21T00:15:13.225Z,81.98
2023-03-21T00:16:13.753Z,82.09
2023-03-21T00:17:04.012Z,81.50
2023-03-21T00:17:44.935Z,81.32
2023-03-21T00:18:24.721Z,81.56
2023-03-21T00:19:09.835Z,81.79
2023-03-21T00:19:51.197Z,81.59
2023-03-21T00:22:06.663Z,81.78
2023-03-21T00:22:49.368Z,81.32
2023-03-21T00:23:29.587Z,81.05
2023-03-21T00:24:08.264Z,81.25
2023-03-21T00:24:55.232Z,81.45
2023-03-21T00:25:41.830Z,81.32
2023-03-21T00:26:22.586Z,81.25
2023-03-21T00:27:26.480Z,80.80
2023-03-21T00:28:08.408Z,80.86
2023-03-21T00:28:50.423Z,80.90
2023-03-21T00:29:32.865Z,80.88
2023-03-21T00:30:12.833Z,80.90
2023-03-21T00:30:50.961Z,80.71
2023-03-21T00:31:30.307Z,80.78
2023-03-21T00:33:42.654Z,80.71
2023-03-21T00:34:31.658Z,80.68
2023-03-21T00:36:06.183Z,80.85
2023-03-21T00:38:07.970Z,80.55
2023-03-21T00:38:50.168Z,80.76
2023-03-21T00:39:29.205Z,81.07
2023-03-21T00:40:25.427Z,80.84
2023-03-21T00:41:18.906Z,80.40
2023-03-21T00:42:05.899Z,80.32
2023-03-21T00:42:38.429Z,80.62
2023-03-21T00:43:57.578Z,80.58
2023-03-21T00:44:37.058Z,80.62
2023-03-21T00:45:41.572Z,80.47
2023-03-21T00:47:00.575Z,80.58
2023-03-21T00:47:53.099Z,80.41
2023-03-21T00:48:32.063Z,80.21
2023-03-21T00:49:12.553Z,80.40
2023-03-21T00:51:11.976Z,80.51
2023-03-21T00:51:51.847Z,79.94
2023-03-21T00:52:40.168Z,79.80
2023-03-21T00:53:19.918Z,79.89
2023-03-21T00:54:08.216Z,80.14
2023-03-21T00:55:41.369Z,79.51
2023-03-21T00:56:21.313Z,79.59
2023-03-21T00:57:02.822Z,79.45
2023-03-21T00:58:30.739Z,78.95
2023-03-21T00:59:10.868Z,78.75
2023-03-21T01:01:16.305Z,78.54
2023-03-21T01:02:05.854Z,78.65
2023-03-21T01:03:01.280Z,78.83
2023-03-21T01:03:51.041Z,78.82
2023-03-21T01:04:39.084Z,78.83
2023-03-21T01:05:39.781Z,78.61
2023-03-21T01:06:19.795Z,78.05
2023-03-21T01:07:37.602Z,78.35
2023-03-21T01:08:26.857Z,77.66
2023-03-21T01:09:13.043Z,77.11
2023-03-21T01:09:55.359Z,77.37
2023-03-21T01:11:23.967Z,76.59
2023-03-21T01:12:03.924Z,76.85
2023-03-21T01:12:50.843Z,76.56
2023-03-21T01:13:34.611Z,76.96
2023-03-21T01:14:22.504Z,76.95
2023-03-21T01:15:07.309Z,76.57
2023-03-21T01:15:55.274Z,76.49
2023-03-21T01:16:58.436Z,76.13
2023-03-21T01:18:28.702Z,75.50
2023-03-21T01:19:09.238Z,75.63
2023-03-21T01:19:59.370Z,75.50
2023-03-21T01:20:43.425Z,75.73
2023-03-21T01:22:00.811Z,74.35
2023-03-21T01:22:40.695Z,73.73
2023-03-21T01:23:56.823Z,73.25
2023-03-21T01:24:53.838Z,73.17
2023-03-21T01:25:37.436Z,73.30
2023-03-21T01:26:25.189Z,72.76
2023-03-21T01:27:04.420Z,72.94
2023-03-21T01:27:47.283Z,73.11
2023-03-21T01:28:26.075Z,72.89
2023-03-21T01:29:14.326Z,72.61
2023-03-21T01:30:43.098Z,72.65
2023-03-21T01:31:24.538Z,72.69
2023-03-21T01:32:12.029Z,72.60
2023-03-21T01:32:50.956Z,72.12
2023-03-21T01:33:30.978Z,72.63
2023-03-21T01:34:13.141Z,72.17
2023-03-21T01:34:52.176Z,71.63
2023-03-21T01:35:37.499Z,71.57
2023-03-21T01:36:26.390Z,71.49
2023-03-21T01:37:07.460Z,71.39
2023-03-21T01:38:35.285Z,71.90
2023-03-21T01:39:53.206Z,71.72
2023-03-21T01:40:32.020Z,71.04
2023-03-21T01:41:42.478Z,70.78
2023-03-21T01:43:55.458Z,71.87
2023-03-21T01:45:53.835Z,72.23
2023-03-21T01:46:51.477Z,72.14
2023-03-21T01:47:38.672Z,71.40
2023-03-21T01:48:19.766Z,71.68
2023-03-21T01:49:53.057Z,71.76
2023-03-21T01:50:33.499Z,71.58
2023-03-21T01:51:16.216Z,72.12
2023-03-21T01:52:13.049Z,72.84
2023-03-21T01:52:52.949Z,73.56
2023-03-21T01:53:41.058Z,72.16
2023-03-21T01:54:19.965Z,72.07
2023-03-21T01:55:06.053Z,71.68
2023-03-21T01:55:44.966Z,71.10
2023-03-21T01:56:33.980Z,72.82
2023-03-21T01:57:15.211Z,73.00
2023-03-21T01:58:32.102Z,71.42
2023-03-21T01:59:21.898Z,70.93
2023-03-21T02:00:15.548Z,70.87
2023-03-21T02:01:00.275Z,70.57
2023-03-21T02:01:42.351Z,70.50
2023-03-21T02:02:21.227Z,70.61
2023-03-21T02:03:13.661Z,71.18
2023-03-21T02:04:05.166Z,70.46
2023-03-21T02:04:53.759Z,70.61
2023-03-21T02:05:56.800Z,70.40
2023-03-21T02:06:51.269Z,70.33
2023-03-21T02:07:39.893Z,70.16
2023-03-21T02:08:25.851Z,68.66
2023-03-21T02:10:21.825Z,69.17
2023-03-21T02:11:01.295Z,70.89
2023-03-21T02:11:46.662Z,70.92
2023-03-21T02:12:27.446Z,70.14
2023-03-21T02:14:06.116Z,69.81
2023-03-21T02:14:46.311Z,70.31
2023-03-21T02:15:44.573Z,70.28
2023-03-21T02:17:04.294Z,70.80
2023-03-21T02:18:06.604Z,70.07
2023-03-21T02:18:45.850Z,69.92
2023-03-21T02:19:32.849Z,69.79
2023-03-21T02:20:39.467Z,69.70
2023-03-21T02:21:39.158Z,69.62
2023-03-21T02:22:51.327Z,68.74
2023-03-21T02:23:33.182Z,68.31
2023-03-21T02:24:14.900Z,68.54
2023-03-21T02:25:01.324Z,68.22
2023-03-21T02:26:21.219Z,66.21
2023-03-21T02:27:04.556Z,65.44
2023-03-21T02:28:09.440Z,66.41
2023-03-21T02:28:51.290Z,66.93
2023-03-21T02:29:32.992Z,67.55
2023-03-21T02:31:01.787Z,66.78
2023-03-21T02:32:18.115Z,66.03
2023-03-21T02:33:25.763Z,64.66
2023-03-21T02:34:46.333Z,63.87
2023-03-21T02:35:24.999Z,64.18
2023-03-21T02:36:13.903Z,64.45
2023-03-21T02:37:15.221Z,64.18
2023-03-21T02:38:31.968Z,63.57
2023-03-21T02:39:54.391Z,63.63
2023-03-21T02:40:33.179Z,63.10
2023-03-21T02:42:31.796Z,62.63
2023-03-21T02:43:40.453Z,62.47
2023-03-21T02:44:28.857Z,62.05
2023-03-21T02:46:24.407Z,63.37
2023-03-21T02:47:06.520Z,63.02
2023-03-21T02:47:58.744Z,63.84
2023-03-21T02:48:50.098Z,63.74
2023-03-21T02:49:43.990Z,63.36
2023-03-21T02:50:23.873Z,63.48
2023-03-21T02:51:13.235Z,63.35
2023-03-21T02:52:47.940Z,61.90
2023-03-21T02:54:56.724Z,62.45
2023-03-21T02:55:45.940Z,62.94
2023-03-21T02:56:24.924Z,63.56
2023-03-21T02:57:14.439Z,63.78
2023-03-21T02:57:56.983Z,63.68
2023-03-21T02:58:39.045Z,64.31
2023-03-21T02:59:25.402Z,64.07
2023-03-21T03:01:43.926Z,63.57
2023-03-21T03:02:23.257Z,63.24
2023-03-21T03:03:09.972Z,63.41
2023-03-21T03:03:50.444Z,63.27
2023-03-21T03:04:31.751Z,63.45
2023-03-21T03:05:20.381Z,63.31
2023-03-21T03:06:04.081Z,63.01
2023-03-21T03:06:42.891Z,63.48
2023-03-21T03:07:22.768Z,64.08
2023-03-21T03:08:42.888Z,64.11
2023-03-21T03:10:04.994Z,63.97
2023-03-21T03:11:06.447Z,63.80
2023-03-21T03:11:48.301Z,63.67
2023-03-21T03:12:27.080Z,63.44
2023-03-21T03:13:25.093Z,63.33
2023-03-21T03:16:43.377Z,63.27
2023-03-21T03:17:45.413Z,63.53
2023-03-21T03:19:07.212Z,63.23
2023-03-21T03:20:28.279Z,62.68
2023-03-21T03:21:45.188Z,63.36
2023-03-21T03:22:36.530Z,63.23
2023-03-21T03:23:57.064Z,63.97
2023-03-21T03:25:17.775Z,63.00
2023-03-21T03:26:43.001Z,62.73
2023-03-21T03:27:31.553Z,62.49
2023-03-21T03:30:08.130Z,63.09
2023-03-21T03:31:07.380Z,63.04
2023-03-21T03:32:07.579Z,62.80
2023-03-21T03:32:57.634Z,62.69
2023-03-21T03:33:36.064Z,62.81
2023-03-21T03:34:27.028Z,62.90
2023-03-21T03:35:18.073Z,62.67
2023-03-21T03:36:05.532Z,62.83
2023-03-21T03:36:57.954Z,63.31
2023-03-21T03:37:41.506Z,63.33
2023-03-21T03:38:22.931Z,63.88
2023-03-21T03:40:01.135Z,63.42
2023-03-21T03:40:48.977Z,63.24
2023-03-21T03:41:29.416Z,63.21
2023-03-21T03:42:27.959Z,63.25
2023-03-21T03:43:11.085Z,63.30
2023-03-21T03:43:57.988Z,64.86
2023-03-21T03:44:36.925Z,64.08
2023-03-21T03:46:21.051Z,65.54
2023-03-21T03:48:01.164Z,64.99
2023-03-21T03:49:31.296Z,64.26
2023-03-21T03:50:10.071Z,64.64
2023-03-21T03:51:02.630Z,64.56
2023-03-21T03:52:31.710Z,65.06
2023-03-21T03:53:27.118Z,64.79
2023-03-21T03:54:50.010Z,64.96
2023-03-21T03:55:34.778Z,64.65
2023-03-21T03:56:52.083Z,65.13
2023-03-21T03:57:31.582Z,65.01
2023-03-21T03:59:29.086Z,65.05
2023-03-21T04:00:13.898Z,64.90
2023-03-21T04:00:52.898Z,65.25
2023-03-21T04:01:32.070Z,65.34
2023-03-21T04:02:12.577Z,66.07
2023-03-21T04:03:48.477Z,65.51
2023-03-21T04:04:29.908Z,65.47
2023-03-21T04:05:09.773Z,65.66
2023-03-21T04:05:48.324Z,65.63
2023-03-21T04:06:29.007Z,65.49
2023-03-21T04:07:09.127Z,65.40
2023-03-21T04:07:51.289Z,66.58
2023-03-21T04:08:33.176Z,66.82
2023-03-21T04:09:20.490Z,66.55
2023-03-21T04:10:05.472Z,66.62
2023-03-21T04:10:44.536Z,67.32
2023-03-21T04:11:24.388Z,67.34
2023-03-21T04:12:03.963Z,67.06
2023-03-21T04:12:51.879Z,67.47
2023-03-21T04:13:33.973Z,67.64
2023-03-21T04:14:13.446Z,67.42
2023-03-21T04:15:17.456Z,67.28
2023-03-21T04:17:36.829Z,66.74
2023-03-21T04:19:10.476Z,66.38
2023-03-21T04:21:29.997Z,67.78
2023-03-21T04:22:09.932Z,67.75
2023-03-21T04:22:51.355Z,67.26
2023-03-21T04:23:30.131Z,67.23
2023-03-21T04:24:09.433Z,67.42
2023-03-21T04:24:50.518Z,67.63
2023-03-21T04:25:44.715Z,68.11
2023-03-21T04:26:33.154Z,68.34
2023-03-21T04:27:14.059Z,67.89
2023-03-21T04:28:00.982Z,68.21
2023-03-21T04:28:39.851Z,67.75
2023-03-21T04:29:30.089Z,67.72
2023-03-21T04:31:05.200Z,67.93
2023-03-21T04:33:26.480Z,68.11
2023-03-21T04:34:06.051Z,67.59
2023-03-21T04:34:55.152Z,68.07
2023-03-21T04:36:50.563Z,67.95
2023-03-21T04:37:33.946Z,67.98
2023-03-21T04:38:14.052Z,67.79
2023-03-21T04:38:54.183Z,68.52
2023-03-21T04:39:34.020Z,67.99
2023-03-21T04:40:20.086Z,67.93
2023-03-21T04:41:00.704Z,68.56
2023-03-21T04:41:45.549Z,68.53
2023-03-21T04:42:35.314Z,68.34
2023-03-21T04:43:26.306Z,68.85
2023-03-21T04:44:45.065Z,68.16
2023-03-21T04:45:24.409Z,68.55
2023-03-21T04:46:53.034Z,69.02
2023-03-21T04:47:32.293Z,68.77
2023-03-21T04:48:11.108Z,69.26
2023-03-21T04:48:50.921Z,68.75
2023-03-21T04:49:24.281Z,69.24
2023-03-21T04:50:11.354Z,68.79
2023-03-21T04:50:51.464Z,68.70
2023-03-21T04:51:31.320Z,69.28
2023-03-21T04:52:09.311Z,68.90
2023-03-21T04:52:56.527Z,69.01
2023-03-21T04:53:40.979Z,68.58
2023-03-21T04:54:19.554Z,68.71
2023-03-21T04:55:37.200Z,68.60
2023-03-21T04:56:34.510Z,68.42
2023-03-21T04:57:14.223Z,68.24
2023-03-21T04:57:53.325Z,68.19
2023-03-21T04:58:39.953Z,68.89
2023-03-21T04:59:22.275Z,68.81
2023-03-21T05:00:10.668Z,68.96
2023-03-21T05:01:03.077Z,68.96
2023-03-21T05:01:50.414Z,69.25
2023-03-21T05:02:32.336Z,69.29
2023-03-21T05:03:21.738Z,70.46
2023-03-21T05:04:02.194Z,70.79
2023-03-21T05:05:43.118Z,69.55
2023-03-21T05:06:21.573Z,69.27
2023-03-21T05:07:04.474Z,69.38
2023-03-21T05:07:43.340Z,70.16
2023-03-21T05:08:22.535Z,69.71
2023-03-21T05:09:07.281Z,69.40
2023-03-21T05:09:46.451Z,68.83
2023-03-21T05:11:05.359Z,68.58
2023-03-21T05:11:52.626Z,68.81
2023-03-21T05:12:32.424Z,68.68
2023-03-21T05:13:12.070Z,68.20
2023-03-21T05:13:50.306Z,67.77
2023-03-21T05:14:29.479Z,68.00
2023-03-21T05:15:08.014Z,67.42
2023-03-21T05:15:50.562Z,67.42
2023-03-21T05:16:48.882Z,69.03
2023-03-21T05:17:28.600Z,68.32
2023-03-21T05:18:11.285Z,67.61
2023-03-21T05:18:51.804Z,67.48
2023-03-21T05:19:40.707Z,67.35
2023-03-21T05:20:30.041Z,67.03
2023-03-21T05:21:10.889Z,67.21
2023-03-21T05:21:50.765Z,67.00
2023-03-21T05:22:54.899Z,66.88
2023-03-21T05:25:45.925Z,66.08
2023-03-21T05:26:28.385Z,66.81
2023-03-21T05:27:07.101Z,67.34
2023-03-21T05:27:54.258Z,66.90
2023-03-21T05:28:36.340Z,66.46
2023-03-21T05:29:14.374Z,66.24
2023-03-21T05:29:50.174Z,66.07
2023-03-21T05:30:33.002Z,65.99
2023-03-21T05:31:22.073Z,65.74
2023-03-21T05:32:04.148Z,65.53
2023-03-21T05:32:43.382Z,65.69
2023-03-21T05:33:32.375Z,65.80
2023-03-21T05:34:15.478Z,65.63
2023-03-21T05:35:33.392Z,65.03
2023-03-21T05:36:25.342Z,65.57
2023-03-21T05:38:19.089Z,64.32
2023-03-21T05:40:59.494Z,64.69
2023-03-21T05:41:41.328Z,64.36
2023-03-21T05:42:21.206Z,64.70
2023-03-21T05:43:04.092Z,64.67
2023-03-21T05:44:09.140Z,63.66
2023-03-21T05:44:49.196Z,64.04
2023-03-21T05:45:36.806Z,63.35
2023-03-21T05:46:15.485Z,63.62
2023-03-21T05:46:55.130Z,63.44
2023-03-21T05:47:34.160Z,62.98
2023-03-21T05:48:54.177Z,63.03
2023-03-21T05:49:33.683Z,62.96
2023-03-21T05:50:13.706Z,63.01
2023-03-21T05:51:02.008Z,62.59
2023-03-21T05:51:42.429Z,62.30
2023-03-21T05:52:31.357Z,62.96
2023-03-21T05:53:34.924Z,62.24
2023-03-21T05:54:54.350Z,62.31
2023-03-21T05:56:13.429Z,61.38
2023-03-21T05:58:35.504Z,61.18
2023-03-21T05:59:42.021Z,61.00
2023-03-21T06:00:22.272Z,60.95
2023-03-21T06:01:01.368Z,60.80
2023-03-21T06:01:40.502Z,61.15
2023-03-21T06:02:28.087Z,60.57
2023-03-21T06:03:10.220Z,60.66
2023-03-21T06:03:50.481Z,60.46
2023-03-21T06:05:18.349Z,60.28
2023-03-21T06:05:57.074Z,60.50
2023-03-21T06:06:46.273Z,59.96
2023-03-21T06:08:16.708Z,59.81
2023-03-21T06:09:34.427Z,60.27
2023-03-21T06:10:14.435Z,59.78
2023-03-21T06:12:36.877Z,60.10
2023-03-21T06:13:24.266Z,59.65
2023-03-21T06:14:49.791Z,59.39
2023-03-21T06:15:28.115Z,59.33
2023-03-21T06:16:10.561Z,59.13
2023-03-21T06:16:59.345Z,59.18
2023-03-21T06:17:37.526Z,58.94
2023-03-21T06:18:19.425Z,58.81
2023-03-21T06:19:06.999Z,58.73
2023-03-21T06:19:49.581Z,58.85
2023-03-21T06:20:41.408Z,59.31
2023-03-21T06:22:19.114Z,59.09
2023-03-21T06:22:59.119Z,58.71
2023-03-21T06:24:19.241Z,58.65
2023-03-21T06:24:58.553Z,58.58
2023-03-21T06:29:48.064Z,58.25
2023-03-21T06:30:37.295Z,57.87
2023-03-21T06:31:16.289Z,57.58
2023-03-21T06:32:07.589Z,58.00
2023-03-21T06:32:47.426Z,57.82
2023-03-21T06:33:26.752Z,57.81
2023-03-21T06:34:06.682Z,57.26
2023-03-21T06:34:47.343Z,57.90
2023-03-21T06:35:26.608Z,57.73
2023-03-21T06:36:31.696Z,57.65
2023-03-21T06:38:13.781Z,57.36
2023-03-21T06:39:17.814Z,57.18
2023-03-21T06:39:57.477Z,58.06
2023-03-21T06:40:36.374Z,57.66
2023-03-21T06:41:17.901Z,57.08
2023-03-21T06:42:06.149Z,57.02
2023-03-21T06:44:00.576Z,56.99
2023-03-21T06:44:49.262Z,57.23
2023-03-21T06:45:29.000Z,57.19
2023-03-21T06:46:55.097Z,56.99
2023-03-21T06:47:59.642Z,57.14
2023-03-21T06:48:47.390Z,57.11
2023-03-21T06:49:37.609Z,57.23
2023-03-21T06:50:16.694Z,57.20
2023-03-21T06:50:56.987Z,57.29
2023-03-21T06:51:36.048Z,57.82
2023-03-21T06:52:27.628Z,58.45
2023-03-21T06:53:07.541Z,58.09
2023-03-21T06:53:56.408Z,57.69
2023-03-21T06:54:36.356Z,57.10
2023-03-21T06:55:27.103Z,56.39
2023-03-21T06:56:32.349Z,56.75
2023-03-21T06:57:03.967Z,56.30
2023-03-21T06:57:44.681Z,56.72
2023-03-21T07:00:59.060Z,56.90
2023-03-21T07:01:38.643Z,55.99
2023-03-21T07:03:19.394Z,56.05
2023-03-21T07:03:59.629Z,55.98
2023-03-21T07:06:11.952Z,56.35
2023-03-21T07:08:31.732Z,55.97
2023-03-21T07:09:28.150Z,57.13
2023-03-21T07:11:32.592Z,56.69
2023-03-21T07:12:11.690Z,56.05
2023-03-21T07:15:10.056Z,54.44
2023-03-21T07:15:49.694Z,56.48
2023-03-21T07:17:05.005Z,54.05
2023-03-21T07:18:49.317Z,55.26
2023-03-21T07:20:47.199Z,53.75
2023-03-21T07:21:34.987Z,53.57
2023-03-21T07:24:02.912Z,53.79
2023-03-21T07:25:04.262Z,53.18
2023-03-21T07:25:52.823Z,53.84
2023-03-21T07:26:33.551Z,54.72
2023-03-21T07:27:25.561Z,55.00
2023-03-21T07:28:09.338Z,54.08
2023-03-21T07:28:58.304Z,52.82
2023-03-21T07:29:47.372Z,52.56
2023-03-21T07:30:39.780Z,52.81
2023-03-21T07:31:19.921Z,53.46
2023-03-21T07:31:59.079Z,53.64
2023-03-21T07:33:43.196Z,52.05
2023-03-21T07:34:22.905Z,52.03
2023-03-21T07:35:01.964Z,52.16
2023-03-21T07:35:44.509Z,52.27
2023-03-21T07:36:26.661Z,51.97
2023-03-21T07:37:17.047Z,52.42
2023-03-21T07:39:28.679Z,52.75
2023-03-21T07:43:59.757Z,50.95
2023-03-21T07:45:25.644Z,52.25
2023-03-21T07:47:26.480Z,51.63
2023-03-21T07:49:03.314Z,50.93
2023-03-21T07:49:52.544Z,51.93
2023-03-21T07:50:57.626Z,52.62
2023-03-21T07:54:23.067Z,51.49
2023-03-21T07:55:11.041Z,50.71
2023-03-21T07:56:01.145Z,51.26
2023-03-21T07:56:42.986Z,51.57
2023-03-21T07:57:51.618Z,50.82
2023-03-21T07:59:52.646Z,51.22
2023-03-21T08:00:32.242Z,50.37
2023-03-21T08:01:26.948Z,51.19
2023-03-21T08:02:07.482Z,50.55
2023-03-21T08:02:57.857Z,50.18
2023-03-21T08:03:40.661Z,50.32
2023-03-21T08:04:22.848Z,51.74
2023-03-21T08:05:12.989Z,51.13
2023-03-21T08:05:53.216Z,51.82
2023-03-21T08:06:33.206Z,52.32
2023-03-21T08:07:15.585Z,51.23
2023-03-21T08:08:48.770Z,52.46
2023-03-21T08:10:31.221Z,52.16
2023-03-21T08:12:48.234Z,50.71
2023-03-21T08:13:31.683Z,49.61
2023-03-21T08:16:12.706Z,50.68
2023-03-21T08:17:04.917Z,50.12
2023-03-21T08:17:54.310Z,48.70
2023-03-21T08:18:57.830Z,49.36
2023-03-21T08:20:28.028Z,48.57
2023-03-21T08:21:10.871Z,50.56
2023-03-21T08:21:52.334Z,48.58
2023-03-21T08:26:19.147Z,49.82
2023-03-21T08:28:31.634Z,48.43
2023-03-21T08:34:03.059Z,46.57
2023-03-21T08:34:43.518Z,46.24
2023-03-21T08:36:35.107Z,47.39
2023-03-21T08:37:55.438Z,47.76
2023-03-21T08:39:13.233Z,47.83
2023-03-21T08:40:02.288Z,47.05
2023-03-21T08:43:24.991Z,46.18
2023-03-21T08:44:34.919Z,47.27
2023-03-21T08:46:16.191Z,44.38
2023-03-21T08:46:56.976Z,44.26
2023-03-21T08:47:28.769Z,44.46
2023-03-21T08:52:40.179Z,44.35
2023-03-21T08:53:23.052Z,44.41
2023-03-21T08:54:52.298Z,44.52
2023-03-21T08:55:43.678Z,44.04
2023-03-21T08:57:17.520Z,44.33
2023-03-21T08:57:58.699Z,44.11
2023-03-21T08:58:46.165Z,43.51
2023-03-21T08:59:28.699Z,43.16
2023-03-21T09:00:21.944Z,45.21
2023-03-21T09:01:42.257Z,44.86
2023-03-21T09:03:27.528Z,43.37
2023-03-21T09:04:08.558Z,43.18
2023-03-21T09:04:59.092Z,42.96
2023-03-21T09:06:30.054Z,43.08
2023-03-21T09:07:18.204Z,43.92
2023-03-21T09:08:04.568Z,42.75
2023-03-21T09:08:43.567Z,42.67
2023-03-21T09:09:30.463Z,43.05
2023-03-21T09:10:20.220Z,43.75
2023-03-21T09:11:13.308Z,43.96
2023-03-21T09:12:45.683Z,44.97
2023-03-21T09:13:26.742Z,45.50
2023-03-21T09:14:10.022Z,46.18
2023-03-21T09:14:59.315Z,45.30
2023-03-21T09:15:41.680Z,43.73
2023-03-21T09:18:00.744Z,42.48
2023-03-21T09:19:35.286Z,41.96
2023-03-21T09:20:26.507Z,41.00
2023-03-21T09:21:13.002Z,40.90
2023-03-21T09:21:52.329Z,39.21
2023-03-21T09:22:31.356Z,39.23
2023-03-21T09:23:03.273Z,39.26
2023-03-21T09:24:23.474Z,39.54
2023-03-21T09:25:08.489Z,41.01
2023-03-21T09:27:28.337Z,40.90
2023-03-21T09:28:08.720Z,40.56
2023-03-21T09:28:50.738Z,41.10
2023-03-21T09:29:32.579Z,43.38
2023-03-21T09:30:25.573Z,41.31
2023-03-21T09:31:11.744Z,41.64
2023-03-21T09:31:54.528Z,39.88
2023-03-21T09:32:46.416Z,39.77
2023-03-21T09:33:26.621Z,39.05
2023-03-21T09:34:05.747Z,39.05
2023-03-21T09:34:46.858Z,39.04
2023-03-21T09:35:31.538Z,39.85
2023-03-21T09:36:14.430Z,39.90
2023-03-21T09:38:10.024Z,39.87
2023-03-21T09:38:59.858Z,39.27
2023-03-21T09:40:21.456Z,39.08
2023-03-21T09:41:11.993Z,38.75
2023-03-21T09:42:08.621Z,38.75
2023-03-21T09:43:10.833Z,38.80
2023-03-21T09:44:12.734Z,39.07
2023-03-21T09:44:52.038Z,38.80
2023-03-21T09:45:52.704Z,39.28
2023-03-21T09:47:29.517Z,38.40
2023-03-21T09:48:36.074Z,38.71
2023-03-21T09:49:20.156Z,39.56
2023-03-21T09:50:20.733Z,39.83
2023-03-21T09:51:15.952Z,38.70
2023-03-21T09:52:06.040Z,37.66
2023-03-21T09:52:58.832Z,38.66
2023-03-21T09:53:44.426Z,39.38
2023-03-21T09:54:48.341Z,39.07
2023-03-21T09:55:39.714Z,39.40
2023-03-21T09:56:33.414Z,38.83
2023-03-21T09:57:54.111Z,39.12
2023-03-21T09:58:53.219Z,38.67
2023-03-21T09:59:59.167Z,37.96
2023-03-21T10:02:41.778Z,38.38
2023-03-21T10:05:59.979Z,37.87
2023-03-21T10:06:41.498Z,38.00
2023-03-21T10:07:25.102Z,39.80
2023-03-21T10:08:06.449Z,38.32
2023-03-21T10:08:49.782Z,38.56
2023-03-21T10:09:32.821Z,39.12
2023-03-21T10:10:29.088Z,38.04
2023-03-21T10:12:51.382Z,38.33
2023-03-21T10:13:32.012Z,37.77
2023-03-21T10:14:39.844Z,39.30
2023-03-21T10:16:14.543Z,37.57
2023-03-21T10:17:22.357Z,37.86
2023-03-21T10:18:06.181Z,37.13
2023-03-21T10:18:54.543Z,36.89
2023-03-21T10:20:29.992Z,38.06
2023-03-21T10:21:43.040Z,38.71
2023-03-21T10:22:29.702Z,38.93
2023-03-21T10:23:33.284Z,39.19
2023-03-21T10:24:37.642Z,38.71
2023-03-21T10:26:21.575Z,37.82
2023-03-21T10:26:56.738Z,37.29
2023-03-21T10:27:46.812Z,38.81
2023-03-21T10:29:50.501Z,37.50
2023-03-21T10:30:53.751Z,37.75
2023-03-21T10:31:57.804Z,38.48
2023-03-21T10:34:16.415Z,39.47
2023-03-21T10:36:02.493Z,40.63
2023-03-21T10:37:29.723Z,38.61
2023-03-21T10:38:09.905Z,38.81
2023-03-21T10:41:03.027Z,37.38
2023-03-21T10:41:44.759Z,37.48
2023-03-21T10:42:50.408Z,37.02
2023-03-21T10:43:41.151Z,39.64
2023-03-21T10:44:47.127Z,37.71
2023-03-21T10:48:59.394Z,35.86
2023-03-21T10:49:40.259Z,36.18
2023-03-21T10:50:18.065Z,37.04
2023-03-21T10:53:22.425Z,35.99
2023-03-21T10:55:32.310Z,39.63
2023-03-21T10:56:15.327Z,37.27
2023-03-21T10:57:09.624Z,37.87
2023-03-21T10:58:19.080Z,38.35
2023-03-21T10:58:58.464Z,37.83
2023-03-21T10:59:47.320Z,39.67
2023-03-21T11:00:27.531Z,37.30
2023-03-21T11:01:15.119Z,37.96
2023-03-21T11:05:40.799Z,34.10
2023-03-21T11:06:32.715Z,33.26
2023-03-21T11:09:47.003Z,33.96
2023-03-21T11:12:57.562Z,34.86
2023-03-21T11:14:34.168Z,35.49
2023-03-21T11:15:41.811Z,32.68
2023-03-21T11:16:27.610Z,33.20
2023-03-21T11:19:14.570Z,33.40
2023-03-21T11:24:50.660Z,32.82
2023-03-21T11:25:42.037Z,34.03
2023-03-21T11:26:31.327Z,32.64
2023-03-21T11:27:12.924Z,33.03
2023-03-21T11:30:17.437Z,33.93
2023-03-21T11:31:25.042Z,33.11
2023-03-21T11:32:05.266Z,34.35
2023-03-21T11:32:46.292Z,34.10
2023-03-21T11:33:32.853Z,32.74
2023-03-21T11:34:39.314Z,31.47
2023-03-21T11:35:32.833Z,33.14
2023-03-21T11:36:23.922Z,33.21
2023-03-21T11:38:04.211Z,33.16
2023-03-21T11:38:44.058Z,33.15
2023-03-21T11:39:49.647Z,32.17
2023-03-21T11:40:52.037Z,32.06
2023-03-21T11:41:31.610Z,32.73
2023-03-21T11:42:48.477Z,30.74
2023-03-21T11:45:12.067Z,31.24
2023-03-21T11:46:04.492Z,30.63
2023-03-21T11:46:43.536Z,30.23
2023-03-21T11:47:22.931Z,30.10
2023-03-21T11:49:31.873Z,31.54
2023-03-21T11:50:24.700Z,31.17
2023-03-21T11:51:04.398Z,30.97
2023-03-21T11:52:08.767Z,31.24
2023-03-21T11:53:50.905Z,31.76
2023-03-21T11:55:06.101Z,31.82
2023-03-21T11:56:01.938Z,31.83
2023-03-21T11:56:47.714Z,31.38
2023-03-21T11:57:34.759Z,31.33
2023-03-21T11:59:33.695Z,31.33
2023-03-21T12:01:41.947Z,31.46
2023-03-21T12:02:23.430Z,31.84
2023-03-21T12:03:11.390Z,31.52
2023-03-21T12:04:18.632Z,31.78
2023-03-21T12:05:56.260Z,31.71
2023-03-21T12:06:55.365Z,31.88
2023-03-21T12:07:44.773Z,32.23
2023-03-21T12:11:03.529Z,31.51
2023-03-21T12:12:03.593Z,31.56
2023-03-21T12:13:01.354Z,31.71
2023-03-21T12:13:46.603Z,30.99
2023-03-21T12:15:03.922Z,31.66
2023-03-21T12:16:16.337Z,30.56
2023-03-21T12:17:33.583Z,32.16
2023-03-21T12:18:45.334Z,31.28
2023-03-21T12:19:25.422Z,30.71
2023-03-21T12:20:29.256Z,31.13
2023-03-21T12:21:20.864Z,32.86
2023-03-21T12:22:58.035Z,32.66
2023-03-21T12:24:35.839Z,32.21
2023-03-21T12:25:14.439Z,32.55
2023-03-21T12:26:12.604Z,32.30
2023-03-21T12:29:27.464Z,33.27
2023-03-21T12:31:02.004Z,32.80
2023-03-21T12:32:33.844Z,34.55
2023-03-21T12:33:24.392Z,34.14
2023-03-21T12:34:30.934Z,36.27
2023-03-21T12:35:19.016Z,34.35
2023-03-21T12:36:13.188Z,35.24
2023-03-21T12:37:42.866Z,34.04
2023-03-21T12:38:32.849Z,32.65
2023-03-21T12:39:39.188Z,31.90
2023-03-21T12:41:31.391Z,32.86
2023-03-21T12:42:18.622Z,33.01
2023-03-21T12:43:37.638Z,32.17
2023-03-21T12:44:24.399Z,32.28
2023-03-21T12:46:54.804Z,32.58
2023-03-21T12:48:53.994Z,33.35
2023-03-21T12:50:57.998Z,34.08
2023-03-21T12:54:10.228Z,35.03
2023-03-21T12:55:21.693Z,35.73
2023-03-21T12:56:59.252Z,35.38
2023-03-21T12:57:54.834Z,35.29
2023-03-21T12:58:50.289Z,35.54
2023-03-21T13:00:14.498Z,35.32
2023-03-21T13:00:53.624Z,35.94
2023-03-21T13:01:39.966Z,35.44
2023-03-21T13:02:43.960Z,36.30
2023-03-21T13:03:42.041Z,37.36
2023-03-21T13:04:49.713Z,37.17
2023-03-21T13:05:56.672Z,37.78
2023-03-21T13:07:50.864Z,36.55
2023-03-21T13:08:31.630Z,36.30
2023-03-21T13:09:41.197Z,36.23
2023-03-21T13:10:24.348Z,35.93
2023-03-21T13:11:06.796Z,35.73
2023-03-21T13:11:55.470Z,35.86
2023-03-21T13:13:31.349Z,34.55
2023-03-21T13:14:22.184Z,34.51
2023-03-21T13:15:03.533Z,33.93
2023-03-21T13:15:51.403Z,34.34
2023-03-21T13:16:30.854Z,34.22
2023-03-21T13:17:29.343Z,34.08
2023-03-21T13:19:09.343Z,35.71
2023-03-21T13:20:40.060Z,34.88
2023-03-21T13:22:11.739Z,33.99
2023-03-21T13:23:02.048Z,34.28
2023-03-21T13:24:01.059Z,34.29
2023-03-21T13:24:50.420Z,34.33
2023-03-21T13:25:35.703Z,34.23
2023-03-21T13:26:32.271Z,34.60
2023-03-21T13:27:37.112Z,33.82
2023-03-21T13:29:12.423Z,33.84
2023-03-21T13:30:01.096Z,35.14
2023-03-21T13:30:41.857Z,33.83
2023-03-21T13:31:50.901Z,33.27
2023-03-21T13:32:56.489Z,33.04
2023-03-21T13:33:49.913Z,33.40
2023-03-21T13:36:08.292Z,33.60
2023-03-21T13:37:35.415Z,32.50
2023-03-21T13:39:04.731Z,32.88
2023-03-21T13:39:49.969Z,33.31
2023-03-21T13:40:28.708Z,32.83
2023-03-21T13:41:40.746Z,33.06
2023-03-21T13:43:19.034Z,32.93
2023-03-21T13:44:22.995Z,33.57
2023-03-21T13:45:03.442Z,33.47
2023-03-21T13:46:07.988Z,33.40
2023-03-21T13:48:27.188Z,33.20
2023-03-21T13:49:10.037Z,33.33
2023-03-21T13:50:18.393Z,32.97
2023-03-21T13:50:56.594Z,32.79
2023-03-21T13:51:37.027Z,32.45
2023-03-21T13:52:28.250Z,32.13
2023-03-21T13:53:29.961Z,32.97
2023-03-21T13:54:21.853Z,32.63